Time;durP1;ratioP1;P1;durP2;ratioP2;P2;SDS_P1;SDS_P2;PMS_P1;PMS_P2;Temp;Humidity;BMP_temperature;BMP_pressure;BME280_temperature;BME280_humidity;BME280_pressure;Samples;Min_cycle;Max_cycle;Signal;HPM_P1;HPM_P2
2022/11/13 00:00:56;;;;;;;15.07;12.73;;;;;;;5.50;100.00;102556.13;4949496;28;20077;-67
2022/11/13 00:03:22;;;;;;;15.10;13.55;;;;;;;5.48;100.00;102549.97;4958460;28;20029;-66
2022/11/13 00:05:47;;;;;;;13.88;12.48;;;;;;;5.46;100.00;102549.84;4953163;28;20025;-67
2022/11/13 00:08:12;;;;;;;18.52;14.30;;;;;;;5.47;100.00;102554.19;4949282;28;20467;-66
2022/11/13 00:10:38;;;;;;;15.23;13.25;;;;;;;5.49;100.00;102544.94;4961459;28;20110;-66
2022/11/13 00:13:03;;;;;;;14.32;12.82;;;;;;;5.50;100.00;102546.75;4949474;28;20023;-66
2022/11/13 00:15:29;;;;;;;14.57;13.07;;;;;;;5.48;100.00;102543.16;4961834;28;20046;-66
2022/11/13 00:17:54;;;;;;;15.68;14.07;;;;;;;5.49;100.00;102542.38;4949226;28;20027;-67
2022/11/13 00:20:19;;;;;;;14.35;12.85;;;;;;;5.49;100.00;102534.66;4948977;28;20027;-66
2022/11/13 00:22:45;;;;;;;14.65;13.15;;;;;;;5.50;100.00;102539.03;4948590;28;20038;-66
2022/11/13 00:25:11;;;;;;;15.60;14.00;;;;;;;5.50;100.00;102532.97;4948870;28;20030;-67
2022/11/13 00:27:36;;;;;;;15.75;14.05;;;;;;;5.49;100.00;102526.03;4949140;28;20035;-66
2022/11/13 00:30:02;;;;;;;14.57;13.00;;;;;;;5.48;100.00;102522.56;4948398;28;20035;-66
2022/11/13 00:32:27;;;;;;;14.48;12.90;;;;;;;5.46;100.00;102521.56;4948586;28;20098;-66
2022/11/13 00:34:52;;;;;;;13.80;12.40;;;;;;;5.44;100.00;102525.66;4949357;28;20015;-66
2022/11/13 00:37:18;;;;;;;15.95;12.95;;;;;;;5.43;100.00;102526.47;4949125;28;20089;-66
2022/11/13 00:39:43;;;;;;;14.85;12.98;;;;;;;5.41;100.00;102513.44;4949202;28;20027;-66
2022/11/13 00:42:09;;;;;;;15.93;12.68;;;;;;;5.39;100.00;102506.41;4948891;28;20068;-66
2022/11/13 00:44:34;;;;;;;12.73;11.48;;;;;;;5.37;100.00;102514.00;4949502;28;20026;-66
2022/11/13 00:46:59;;;;;;;13.68;12.27;;;;;;;5.35;100.00;102500.13;4950497;28;20450;-66
2022/11/13 00:49:25;;;;;;;15.32;12.95;;;;;;;5.33;100.00;102503.31;4953232;28;20058;-66
2022/11/13 00:51:50;;;;;;;13.38;12.07;;;;;;;5.34;100.00;102508.63;4953134;28;20066;-66
2022/11/13 00:54:15;;;;;;;13.40;11.57;;;;;;;5.32;100.00;102493.84;4952957;28;21107;-66
2022/11/13 00:56:41;;;;;;;15.32;12.98;;;;;;;5.32;100.00;102507.59;4953098;28;20041;-66
2022/11/13 00:59:06;;;;;;;12.70;10.93;;;;;;;5.28;100.00;102503.88;4958089;28;20026;-66
2022/11/13 01:01:31;;;;;;;12.98;11.65;;;;;;;5.26;100.00;102509.66;4960472;28;20027;-66
2022/11/13 01:03:57;;;;;;;13.13;11.68;;;;;;;5.23;100.00;102512.91;4959127;28;20027;-66
2022/11/13 01:06:24;;;;;;;13.70;11.07;;;;;;;5.19;100.00;102510.84;4955906;28;20390;-67
2022/11/13 01:08:52;;;;;;;13.35;12.07;;;;;;;5.16;100.00;102503.75;4952491;28;20097;-66
2022/11/13 01:11:20;;;;;;;12.82;11.20;;;;;;;5.14;100.00;102499.28;4952651;28;20043;-66
2022/11/13 01:13:48;;;;;;;13.27;11.13;;;;;;;5.12;100.00;102490.56;4952691;28;20479;-67
2022/11/13 01:16:15;;;;;;;13.65;11.40;;;;;;;5.08;100.00;102491.06;4952936;28;20466;-66
2022/11/13 01:18:41;;;;;;;12.25;11.05;;;;;;;5.05;100.00;102487.47;4952144;28;20380;-67
2022/11/13 01:21:12;;;;;;;13.70;12.35;;;;;;;5.03;100.00;102501.91;4952570;28;20401;-66
2022/11/13 01:23:38;;;;;;;13.52;12.23;;;;;;;4.99;100.00;102489.56;4952050;28;20482;-66
2022/11/13 01:26:17;;;;;;;14.77;11.80;;;;;;;4.98;100.00;102495.47;4952585;28;20114;-66
2022/11/13 01:28:43;;;;;;;12.65;11.45;;;;;;;4.99;100.00;102488.66;4954021;28;20035;-66
2022/11/13 01:31:11;;;;;;;12.25;10.77;;;;;;;4.99;100.00;102489.56;4951707;28;20041;-66
2022/11/13 01:33:37;;;;;;;13.80;10.90;;;;;;;4.99;100.00;102488.66;4956979;28;20038;-66
2022/11/13 01:36:06;;;;;;;13.07;10.77;;;;;;;4.97;100.00;102490.19;4960130;28;20027;-66
2022/11/13 01:38:32;;;;;;;12.27;10.82;;;;;;;4.97;100.00;102479.91;4964669;28;20031;-66
2022/11/13 01:40:57;;;;;;;12.10;10.77;;;;;;;4.94;100.00;102480.59;4963948;28;20027;-66
2022/11/13 01:43:29;;;;;;;14.05;10.05;;;;;;;4.93;100.00;102473.63;4952297;28;20035;-66
2022/11/13 01:45:57;;;;;;;12.15;10.75;;;;;;;4.91;100.00;102481.22;4951331;28;20037;-66
2022/11/13 01:48:27;;;;;;;10.75;9.65;;;;;;;4.89;100.00;102487.03;4964677;28;20036;-66
2022/11/13 01:50:53;;;;;;;11.55;10.35;;;;;;;4.86;100.00;102486.75;4975575;28;20041;-66
2022/11/13 01:53:18;;;;;;;12.25;11.05;;;;;;;4.86;100.00;102481.59;4952333;28;20105;-66
2022/11/13 01:55:45;;;;;;;12.05;9.60;;;;;;;4.85;100.00;102474.69;4977256;28;20030;-66
2022/11/13 01:58:12;;;;;;;11.10;9.98;;;;;;;4.83;100.00;102471.09;4958431;28;20054;-66
2022/11/13 02:00:37;;;;;;;12.40;10.63;;;;;;;4.79;100.00;102462.22;4957452;28;20031;-66
2022/11/13 02:03:02;;;;;;;12.65;10.77;;;;;;;4.76;100.00;102454.28;4963526;28;20495;-66
2022/11/13 02:05:28;;;;;;;10.93;9.82;;;;;;;4.73;100.00;102459.19;4965028;28;20113;-66
2022/11/13 02:07:53;;;;;;;10.90;9.73;;;;;;;4.73;100.00;102456.59;4961264;28;20031;-66
2022/11/13 02:10:18;;;;;;;10.48;9.00;;;;;;;4.69;100.00;102460.59;4954747;28;20041;-66
2022/11/13 02:12:49;;;;;;;11.10;10.00;;;;;;;4.64;100.00;102455.06;4961445;28;20027;-66
2022/11/13 02:15:15;;;;;;;11.52;10.35;;;;;;;4.60;100.00;102447.91;4952389;28;20034;-66
2022/11/13 02:17:56;;;;;;;15.73;10.37;;;;;;;4.56;100.00;102453.53;4952098;28;20066;-66
2022/11/13 02:20:34;;;;;;;11.68;10.48;;;;;;;4.52;100.00;102447.25;4955530;28;20030;-66
2022/11/13 02:23:17;;;;;;;11.93;10.68;;;;;;;4.49;100.00;102448.66;4969102;28;20066;-66
2022/11/13 02:25:46;;;;;;;11.23;10.03;;;;;;;4.46;100.00;102443.28;4951530;28;20088;-66
2022/11/13 02:28:12;;;;;;;11.82;10.73;;;;;;;4.43;100.00;102428.50;4951031;28;20097;-67
2022/11/13 02:30:37;;;;;;;12.32;11.13;;;;;;;4.41;100.00;102432.63;4950316;28;20039;-66
2022/11/13 02:33:20;;;;;;;10.77;9.67;;;;;;;4.38;100.00;102434.94;4954377;28;20041;-66
2022/11/13 02:35:45;;;;;;;11.15;9.95;;;;;;;4.36;100.00;102426.22;4969067;28;20031;-66
2022/11/13 02:38:10;;;;;;;11.47;10.20;;;;;;;4.36;100.00;102421.97;4952536;28;20054;-66
2022/11/13 02:40:37;;;;;;;10.82;9.73;;;;;;;4.34;100.00;102428.66;4950862;28;20046;-66
2022/11/13 02:43:03;;;;;;;10.50;9.50;;;;;;;4.31;100.00;102429.31;4950696;28;20360;-66
2022/11/13 02:45:28;;;;;;;10.67;9.20;;;;;;;4.30;100.00;102421.50;4962168;28;20031;-66
2022/11/13 02:47:53;;;;;;;12.67;10.10;;;;;;;4.31;100.00;102423.28;4952429;28;20567;-66
2022/11/13 02:50:19;;;;;;;10.20;9.27;;;;;;;4.30;100.00;102418.91;4957082;28;20023;-66
2022/11/13 02:52:44;;;;;;;10.20;9.20;;;;;;;4.26;100.00;102425.47;4975806;28;20131;-66
2022/11/13 02:55:09;;;;;;;10.20;9.30;;;;;;;4.25;100.00;102418.50;4950482;28;20106;-66
2022/11/13 02:57:35;;;;;;;10.83;9.73;;;;;;;4.23;100.00;102425.19;4954322;28;20484;-66
2022/11/13 03:00:00;;;;;;;11.37;10.20;;;;;;;4.24;100.00;102421.88;4959238;28;20338;-66
2022/11/13 03:02:26;;;;;;;10.53;9.50;;;;;;;4.24;100.00;102420.97;4953324;28;20431;-66
2022/11/13 03:04:51;;;;;;;11.30;10.07;;;;;;;4.23;100.00;102426.88;4959230;28;20035;-66
2022/11/13 03:07:16;;;;;;;12.07;10.20;;;;;;;4.22;100.00;102415.69;4963115;28;20758;-66
2022/11/13 03:09:41;;;;;;;11.20;10.00;;;;;;;4.24;100.00;102409.03;4949227;28;20111;-66
2022/11/13 03:12:08;;;;;;;10.33;9.33;;;;;;;4.25;100.00;102413.38;4950290;28;20111;-66
2022/11/13 03:14:34;;;;;;;11.03;9.37;;;;;;;4.30;100.00;102412.09;4950206;28;20035;-66
2022/11/13 03:16:59;;;;;;;11.20;9.90;;;;;;;4.31;100.00;102406.22;4949681;28;20027;-66
2022/11/13 03:19:24;;;;;;;10.60;9.40;;;;;;;4.36;100.00;102408.25;4950220;28;20058;-67
2022/11/13 03:21:50;;;;;;;10.90;9.80;;;;;;;4.38;100.00;102399.91;4967037;28;20082;-66
2022/11/13 03:24:15;;;;;;;11.60;9.70;;;;;;;4.43;100.00;102392.56;4958460;28;20027;-66
2022/11/13 03:26:40;;;;;;;10.20;9.20;;;;;;;4.47;100.00;102393.72;4962384;28;20082;-66
2022/11/13 03:29:06;;;;;;;10.93;9.70;;;;;;;4.53;100.00;102386.53;4949574;28;20031;-66
2022/11/13 03:31:31;;;;;;;10.13;9.13;;;;;;;4.56;100.00;102395.38;4949762;28;20042;-66
2022/11/13 03:33:56;;;;;;;11.10;9.20;;;;;;;4.62;100.00;102388.94;4950302;28;20568;-66
2022/11/13 03:36:22;;;;;;;8.85;7.97;;;;;;;4.63;100.00;102385.59;4950048;28;20446;-66
2022/11/13 03:38:47;;;;;;;10.40;9.35;;;;;;;4.66;100.00;102394.44;4959836;28;20493;-66
2022/11/13 03:41:15;;;;;;;10.23;8.25;;;;;;;4.68;100.00;102374.94;4949436;28;20036;-66
2022/11/13 03:43:41;;;;;;;9.23;8.15;;;;;;;4.69;100.00;102384.41;4949721;28;20032;-66
2022/11/13 03:46:06;;;;;;;9.18;8.15;;;;;;;4.68;100.00;102379.16;4953211;28;20407;-66
2022/11/13 03:48:32;;;;;;;10.07;8.02;;;;;;;4.69;100.00;102375.84;4950341;28;20114;-66
2022/11/13 03:50:58;;;;;;;9.57;8.60;;;;;;;4.68;100.00;102374.94;4961403;28;20113;-66
2022/11/13 03:53:23;;;;;;;10.85;8.75;;;;;;;4.68;100.00;102376.59;4949215;28;20156;-66
2022/11/13 03:55:48;;;;;;;11.25;8.88;;;;;;;4.67;100.00;102377.38;4950057;28;20030;-66
2022/11/13 03:58:14;;;;;;;10.03;9.03;;;;;;;4.68;100.00;102374.03;4975371;28;20109;-66
2022/11/13 04:00:41;;;;;;;9.17;8.27;;;;;;;4.67;100.00;102367.09;4961079;28;20023;-66
2022/11/13 04:03:07;;;;;;;9.57;8.63;;;;;;;4.69;100.00;102365.56;4949937;28;20111;-66
2022/11/13 04:05:32;;;;;;;9.23;8.32;;;;;;;4.68;100.00;102356.03;4953003;28;20273;-66
2022/11/13 04:07:58;;;;;;;10.60;9.13;;;;;;;4.68;100.00;102361.19;4958986;28;20034;-66
2022/11/13 04:10:23;;;;;;;11.10;8.80;;;;;;;4.68;100.00;102359.53;4955980;28;20034;-66
2022/11/13 04:12:49;;;;;;;10.15;9.00;;;;;;;4.69;100.00;102353.59;4967918;28;20100;-66
2022/11/13 04:15:14;;;;;;;8.87;7.97;;;;;;;4.70;100.00;102351.94;4948607;28;20030;-66
2022/11/13 04:17:39;;;;;;;9.00;8.20;;;;;;;4.69;100.00;102353.59;4958905;28;20031;-66
2022/11/13 04:20:05;;;;;;;8.83;7.90;;;;;;;4.72;100.00;102349.47;4955066;28;20047;-66
2022/11/13 04:22:31;;;;;;;9.63;8.63;;;;;;;4.74;100.00;102348.84;4960028;28;20031;-66
2022/11/13 04:24:56;;;;;;;9.17;8.27;;;;;;;4.76;100.00;102344.75;4950306;28;20027;-66
2022/11/13 04:27:21;;;;;;;9.83;8.30;;;;;;;4.79;100.00;102341.50;4960522;28;20467;-66
2022/11/13 04:29:46;;;;;;;10.10;8.70;;;;;;;4.78;100.00;102337.16;4948734;28;20033;-66
2022/11/13 04:32:12;;;;;;;10.77;8.63;;;;;;;4.79;100.00;102328.66;4949043;28;20042;-66
2022/11/13 04:34:37;;;;;;;9.30;8.40;;;;;;;4.80;100.00;102333.91;4950790;28;20126;-66
2022/11/13 04:37:02;;;;;;;8.77;7.87;;;;;;;4.82;100.00;102326.34;4975134;28;20446;-66
2022/11/13 04:39:28;;;;;;;9.80;8.30;;;;;;;4.80;100.00;102325.34;4959017;28;20549;-66
2022/11/13 04:44:37;;;;;;;10.25;7.90;;;;;;;4.79;100.00;102324.44;4961936;28;20390;-66
2022/11/13 04:47:03;;;;;;;9.85;8.85;;;;;;;4.83;100.00;102328.13;4966579;28;20051;-66
2022/11/13 04:49:28;;;;;;;9.02;8.13;;;;;;;4.83;100.00;102324.66;4948827;28;20027;-66
2022/11/13 04:51:53;;;;;;;9.40;8.43;;;;;;;4.86;100.00;102317.19;4968711;28;20427;-66
2022/11/13 04:54:19;;;;;;;10.87;8.33;;;;;;;4.85;100.00;102315.41;4957001;28;20031;-66
2022/11/13 04:56:44;;;;;;;8.73;7.83;;;;;;;4.86;100.00;102322.31;4949062;28;20557;-66
2022/11/13 04:59:09;;;;;;;9.43;7.90;;;;;;;4.89;100.00;102317.47;4948311;28;20023;-66
2022/11/13 05:01:35;;;;;;;9.10;8.17;;;;;;;4.88;100.00;102315.66;4948899;28;20098;-66
2022/11/13 05:04:01;;;;;;;10.40;8.32;;;;;;;4.88;100.00;102320.78;4961955;28;20023;-66
2022/11/13 05:06:26;;;;;;;10.20;8.50;;;;;;;4.87;100.00;102319.00;4959335;28;20033;-66
2022/11/13 05:08:52;;;;;;;9.00;7.80;;;;;;;4.83;100.00;102314.38;4975544;28;20015;-66
2022/11/13 05:11:17;;;;;;;11.00;8.63;;;;;;;4.80;100.00;102315.06;4959469;28;20168;-66
2022/11/13 05:13:42;;;;;;;9.77;8.77;;;;;;;4.78;100.00;102320.06;4954404;28;20364;-66
2022/11/13 05:16:10;;;;;;;10.07;8.37;;;;;;;4.78;100.00;102319.16;4957913;28;20023;-66
2022/11/13 05:18:36;;;;;;;11.07;8.93;;;;;;;4.74;100.00;102312.88;4948543;28;20427;-66
2022/11/13 05:21:03;;;;;;;10.20;8.93;;;;;;;4.73;100.00;102310.22;4948875;28;20019;-66
2022/11/13 05:23:29;;;;;;;10.47;9.47;;;;;;;4.73;100.00;102308.50;4948784;28;20038;-66
2022/11/13 05:26:06;;;;;;;10.10;8.70;;;;;;;4.72;100.00;102309.31;4959708;28;20034;-66
2022/11/13 05:28:31;;;;;;;9.53;8.27;;;;;;;4.69;100.00;102303.94;4974104;28;20035;-66
2022/11/13 05:31:08;;;;;;;9.43;8.53;;;;;;;4.68;100.00;102302.13;4948838;28;20400;-66
2022/11/13 05:33:34;;;;;;;7.90;7.10;;;;;;;4.64;100.00;102300.97;4950528;28;20106;-66
2022/11/13 05:36:01;;;;;;;9.43;8.47;;;;;;;4.60;100.00;102288.69;4965193;28;20049;-66
2022/11/13 05:38:27;;;;;;;10.07;9.07;;;;;;;4.55;100.00;102290.00;4951889;28;20035;-66
2022/11/13 05:40:53;;;;;;;10.67;8.53;;;;;;;4.51;100.00;102288.84;4952253;28;20019;-66
2022/11/13 05:43:18;;;;;;;9.70;7.57;;;;;;;4.47;100.00;102285.88;4951990;28;20019;-66
2022/11/13 05:45:43;;;;;;;9.60;8.07;;;;;;;4.43;100.00;102287.31;4951721;28;20035;-66
2022/11/13 05:48:08;;;;;;;9.47;8.40;;;;;;;4.38;100.00;102297.22;4951633;28;20015;-66
2022/11/13 05:50:35;;;;;;;12.20;8.57;;;;;;;4.35;100.00;102286.72;4952484;28;20057;-67
2022/11/13 05:53:00;;;;;;;10.50;8.10;;;;;;;4.32;100.00;102286.44;4951717;28;20463;-66
2022/11/13 05:55:25;;;;;;;9.03;8.13;;;;;;;4.28;100.00;102285.28;4951653;28;20265;-66
2022/11/13 05:57:50;;;;;;;9.07;8.10;;;;;;;4.25;100.00;102295.31;4960603;28;20028;-66
2022/11/13 06:00:16;;;;;;;9.20;8.10;;;;;;;4.24;100.00;102290.97;4967989;28;20027;-66
2022/11/13 06:02:42;;;;;;;8.77;7.87;;;;;;;4.22;100.00;102295.09;4952428;28;20055;-66
2022/11/13 06:05:07;;;;;;;9.37;8.47;;;;;;;4.20;100.00;102291.50;4951618;28;20113;-66
2022/11/13 06:07:33;;;;;;;9.33;8.33;;;;;;;4.16;100.00;102287.78;4964500;28;20483;-66
2022/11/13 06:09:58;;;;;;;9.40;8.17;;;;;;;4.12;100.00;102287.41;4963594;28;20033;-66
2022/11/13 06:12:23;;;;;;;10.20;8.17;;;;;;;4.08;100.00;102288.81;4951489;28;20122;-66
2022/11/13 06:14:48;;;;;;;9.70;8.70;;;;;;;4.08;100.00;102284.56;4951444;28;20045;-66
2022/11/13 06:17:14;;;;;;;10.10;8.30;;;;;;;4.10;100.00;102278.69;4951551;28;20027;-66
2022/11/13 06:19:39;;;;;;;9.13;8.17;;;;;;;4.11;100.00;102283.03;4951373;28;20487;-66
2022/11/13 06:22:04;;;;;;;8.90;8.00;;;;;;;4.10;100.00;102277.03;4951248;28;20019;-66
2022/11/13 06:24:29;;;;;;;9.43;8.23;;;;;;;4.10;100.00;102281.25;4951305;28;20498;-66
2022/11/13 06:26:55;;;;;;;9.17;7.07;;;;;;;3.99;100.00;102283.84;4966355;28;20023;-66
2022/11/13 06:29:20;;;;;;;8.47;7.67;;;;;;;3.89;100.00;102273.56;4950913;28;20028;-66
2022/11/13 06:31:45;;;;;;;8.13;7.33;;;;;;;3.80;100.00;102278.84;4951219;28;20518;-66
2022/11/13 06:34:11;;;;;;;9.47;7.77;;;;;;;3.72;100.00;102275.66;4976002;28;20137;-66
2022/11/13 06:36:36;;;;;;;9.60;7.73;;;;;;;3.66;100.00;102282.81;4961837;28;20057;-66
2022/11/13 06:39:06;;;;;;;9.17;8.23;;;;;;;3.58;100.00;102266.81;4960778;28;20499;-66
2022/11/13 06:41:31;;;;;;;9.63;8.60;;;;;;;3.52;100.00;102271.41;4949656;28;20082;-66
2022/11/13 06:43:58;;;;;;;8.93;7.97;;;;;;;3.45;100.00;102275.13;4949061;28;20031;-66
2022/11/13 06:46:25;;;;;;;14.30;8.67;;;;;;;3.41;100.00;102263.72;4950029;28;20545;-66
2022/11/13 06:48:51;;;;;;;9.53;8.53;;;;;;;3.38;100.00;102268.59;4951019;28;20510;-66
2022/11/13 06:51:22;;;;;;;12.43;9.07;;;;;;;3.31;100.00;102274.84;4950631;28;20039;-66
2022/11/13 06:53:47;;;;;;;9.50;8.48;;;;;;;3.28;100.00;102266.91;4949786;28;20031;-66
2022/11/13 06:56:13;;;;;;;12.13;8.77;;;;;;;3.24;100.00;102263.19;4955398;28;20382;-66
2022/11/13 06:58:39;;;;;;;9.47;8.53;;;;;;;3.18;100.00;102265.25;4959217;28;20326;-66
2022/11/13 07:01:07;;;;;;;9.83;8.83;;;;;;;3.15;100.00;102266.66;4950866;28;20530;-66
2022/11/13 07:03:32;;;;;;;9.43;7.97;;;;;;;3.11;100.00;102261.25;4956196;28;20093;-66
2022/11/13 07:06:01;;;;;;;16.23;11.70;;;;;;;3.05;100.00;102263.28;4949817;28;20472;-66
2022/11/13 07:08:26;;;;;;;30.90;20.00;;;;;;;3.04;100.00;102261.47;4954444;28;20110;-66
2022/11/13 07:10:54;;;;;;;29.43;19.50;;;;;;;3.02;100.00;102260.47;4976130;28;20463;-66
2022/11/13 07:13:20;;;;;;;26.90;16.03;;;;;;;3.01;100.00;102258.66;4956467;28;20054;-66
2022/11/13 07:15:45;;;;;;;17.00;13.23;;;;;;;3.00;100.00;102257.75;4953163;28;20030;-66
2022/11/13 07:18:10;;;;;;;18.33;13.80;;;;;;;3.01;100.00;102261.22;4977243;28;20033;-66
2022/11/13 07:20:36;;;;;;;13.67;12.23;;;;;;;2.98;100.00;102250.72;4952107;28;20073;-67
2022/11/13 07:23:02;;;;;;;15.10;11.93;;;;;;;2.96;100.00;102257.38;4950144;28;20524;-66
2022/11/13 07:25:28;;;;;;;11.53;10.00;;;;;;;2.96;100.00;102249.69;4950599;28;20522;-66
2022/11/13 07:27:53;;;;;;;11.67;10.43;;;;;;;2.94;100.00;102251.22;4952845;28;20034;-67
2022/11/13 07:30:19;;;;;;;16.03;11.60;;;;;;;2.93;100.00;102249.44;4955407;28;20038;-66
2022/11/13 07:32:44;;;;;;;16.00;12.17;;;;;;;2.91;100.00;102244.19;4951423;28;20481;-66
2022/11/13 07:35:10;;;;;;;18.23;13.43;;;;;;;2.88;100.00;102247.38;4948932;28;20033;-66
2022/11/13 07:37:36;;;;;;;15.13;13.00;;;;;;;2.90;100.00;102251.75;4953439;28;20066;-66
2022/11/13 07:40:02;;;;;;;16.17;13.20;;;;;;;2.89;100.00;102255.97;4951480;28;20058;-66
2022/11/13 07:42:27;;;;;;;17.40;13.37;;;;;;;2.88;100.00;102249.03;4952728;28;20041;-66
2022/11/13 07:44:52;;;;;;;16.17;12.93;;;;;;;2.88;100.00;102249.03;4951871;28;20653;-66
2022/11/13 07:47:18;;;;;;;15.20;12.33;;;;;;;2.87;100.00;102252.38;4956834;28;20047;-66
2022/11/13 07:49:43;;;;;;;14.57;12.63;;;;;;;2.88;100.00;102256.72;4950440;28;20033;-66
2022/11/13 07:52:08;;;;;;;16.97;12.70;;;;;;;2.87;100.00;102248.16;4951559;28;20118;-66
2022/11/13 07:54:34;;;;;;;13.67;11.33;;;;;;;2.88;100.00;102244.81;4950803;28;20023;-66
2022/11/13 07:56:59;;;;;;;13.40;11.40;;;;;;;2.93;100.00;102246.88;4950571;28;20027;-66
2022/11/13 07:59:24;;;;;;;13.10;11.23;;;;;;;2.93;100.00;102242.63;4949440;28;20034;-66
2022/11/13 08:01:50;;;;;;;13.50;11.40;;;;;;;2.95;100.00;102242.78;4952550;28;20035;-66
2022/11/13 08:04:15;;;;;;;14.90;11.40;;;;;;;2.96;100.00;102244.56;4958464;28;20027;-66
2022/11/13 08:06:40;;;;;;;11.67;10.47;;;;;;;2.98;100.00;102235.34;4958689;28;20027;-66
2022/11/13 08:09:06;;;;;;;13.30;10.23;;;;;;;2.99;100.00;102244.81;4962323;28;20021;-67
2022/11/13 08:11:31;;;;;;;13.57;10.00;;;;;;;3.04;100.00;102240.13;4951247;28;20035;-66
2022/11/13 08:13:56;;;;;;;12.93;10.10;;;;;;;3.11;100.00;102233.06;4950558;28;20031;-66
2022/11/13 08:16:22;;;;;;;13.47;10.83;;;;;;;3.36;100.00;102237.69;4954805;28;20031;-66
2022/11/13 08:18:48;;;;;;;11.20;9.83;;;;;;;3.57;100.00;102234.25;4952958;28;20475;-66
2022/11/13 08:21:14;;;;;;;9.70;8.70;;;;;;;3.66;100.00;102231.53;4956217;28;20371;-67
2022/11/13 08:23:40;;;;;;;10.43;9.33;;;;;;;3.72;100.00;102229.50;4954708;28;20023;-66
2022/11/13 08:26:06;;;;;;;11.23;9.63;;;;;;;3.78;100.00;102230.00;4949443;28;20114;-66
2022/11/13 08:28:31;;;;;;;10.37;9.37;;;;;;;3.81;100.00;102230.22;4952659;28;20132;-66
2022/11/13 08:30:56;;;;;;;11.37;9.37;;;;;;;3.86;100.00;102233.19;4950522;28;20028;-66
2022/11/13 08:33:22;;;;;;;14.30;9.77;;;;;;;3.87;100.00;102223.84;4955091;28;20062;-66
2022/11/13 08:36:06;;;;;;;12.00;9.43;;;;;;;3.90;100.00;102224.09;4952018;28;20509;-66
2022/11/13 08:38:31;;;;;;;10.73;8.63;;;;;;;3.93;100.00;102229.44;4952807;28;20057;-66
2022/11/13 08:40:58;;;;;;;9.80;8.80;;;;;;;3.95;100.00;102222.78;4948395;28;20023;-67
2022/11/13 08:43:23;;;;;;;9.70;8.77;;;;;;;4.01;100.00;102228.41;4949482;28;20035;-66
2022/11/13 08:45:49;;;;;;;9.93;8.70;;;;;;;4.06;100.00;102222.00;4953109;28;20030;-64
2022/11/13 08:48:14;;;;;;;10.80;8.93;;;;;;;4.12;100.00;102216.44;4951292;28;20019;-63
2022/11/13 08:50:40;;;;;;;9.53;8.53;;;;;;;4.18;100.00;102216.94;4952065;28;20065;-64
2022/11/13 08:53:05;;;;;;;11.23;8.67;;;;;;;4.25;100.00;102208.06;4952369;28;20057;-67
2022/11/13 08:55:32;;;;;;;9.67;8.77;;;;;;;4.37;100.00;102212.41;4948710;28;20023;-67
2022/11/13 08:57:59;;;;;;;9.30;8.40;;;;;;;4.45;100.00;102206.19;4951172;28;20019;-64
2022/11/13 09:00:24;;;;;;;10.10;9.10;;;;;;;4.56;100.00;102205.38;4950708;28;20034;-65
2022/11/13 09:02:53;;;;;;;9.10;8.20;;;;;;;4.66;100.00;102208.63;4954231;28;20024;-65
2022/11/13 09:05:19;;;;;;;9.83;8.60;;;;;;;4.77;100.00;102209.47;4955200;28;20127;-64
2022/11/13 09:07:44;;;;;;;8.67;7.77;;;;;;;4.89;100.00;102210.44;4953688;28;20122;-64
2022/11/13 09:10:09;;;;;;;9.23;8.33;;;;;;;4.99;100.00;102206.00;4956194;28;20115;-64
2022/11/13 09:12:35;;;;;;;8.95;7.82;;;;;;;5.10;100.00;102211.97;4959470;28;20031;-64
2022/11/13 09:15:00;;;;;;;9.60;8.57;;;;;;;5.18;100.00;102208.31;4953882;28;20106;-64
2022/11/13 09:17:25;;;;;;;8.77;7.57;;;;;;;5.25;100.00;102205.41;4950637;28;20050;-64
2022/11/13 09:19:50;;;;;;;8.25;7.45;;;;;;;5.32;100.00;102198.19;4952484;28;20031;-65
2022/11/13 09:22:16;;;;;;;9.25;8.25;;;;;;;5.37;100.00;102194.28;4952396;28;20038;-65
2022/11/13 09:24:41;;;;;;;9.77;8.75;;;;;;;5.43;100.00;102194.75;4952083;28;20031;-65
2022/11/13 09:27:06;;;;;;;9.50;8.55;;;;;;;5.50;100.00;102186.72;4954991;28;20406;-65
2022/11/13 09:29:31;;;;;;;9.23;8.30;;;;;;;5.59;100.00;102190.75;4952007;28;20027;-65
2022/11/13 09:31:57;;;;;;;9.10;8.20;;;;;;;5.67;100.00;102194.78;4951516;28;20022;-66
2022/11/13 09:34:25;;;;;;;8.75;7.95;;;;;;;5.74;100.00;102197.03;4951108;28;20110;-66
2022/11/13 09:36:51;;;;;;;7.07;6.45;;;;;;;5.85;100.00;102199.47;4951169;28;20109;-66
2022/11/13 09:39:16;;;;;;;7.28;6.68;;;;;;;5.93;100.00;102182.94;4952419;28;20027;-66
2022/11/13 09:41:51;;;;;;;7.72;6.85;;;;;;;6.01;100.00;102193.78;4957757;28;20143;-65
2022/11/13 09:44:24;;;;;;;8.02;7.22;;;;;;;6.10;100.00;102191.00;4952867;28;20434;-65
2022/11/13 09:46:54;;;;;;;7.97;7.15;;;;;;;6.18;100.00;102196.72;4952877;28;20097;-65
2022/11/13 09:49:35;;;;;;;7.13;6.45;;;;;;;6.24;100.00;102190.31;4949440;28;20043;-66
2022/11/13 09:52:13;;;;;;;8.45;7.60;;;;;;;6.31;100.00;102196.81;4950671;28;20031;-65
2022/11/13 09:54:38;;;;;;;8.52;7.68;;;;;;;6.38;100.00;102187.84;4953465;28;20027;-66
2022/11/13 09:57:34;;;;;;;7.78;6.97;;;;;;;6.45;100.00;102190.06;4950066;28;20030;-65
2022/11/13 10:00:11;;;;;;;8.65;6.78;;;;;;;6.58;100.00;102190.94;4951305;28;20035;-65
2022/11/13 10:02:47;;;;;;;7.85;7.05;;;;;;;6.64;100.00;102186.19;4949788;28;20229;-65
2022/11/13 10:05:18;;;;;;;10.68;8.98;;;;;;;6.72;100.00;102179.91;4949278;28;20035;-65
2022/11/13 10:07:50;;;;;;;;;;;;;;;6.85;100.00;102181.63;4950037;28;20445;-65
2022/11/13 10:10:37;;;;;;;8.75;7.85;;;;;;;6.97;100.00;102178.13;4950318;28;20805;-65
2022/11/13 10:13:04;;;;;;;8.48;7.57;;;;;;;7.04;100.00;102187.16;4952937;28;20085;-66
2022/11/13 10:15:30;;;;;;;8.38;7.30;;;;;;;7.08;100.00;102178.84;4949356;28;20031;-66
2022/11/13 10:18:10;;;;;;;9.95;7.57;;;;;;;7.08;100.00;102184.00;4948607;28;20043;-65
2022/11/13 10:20:47;;;;;;;8.10;7.18;;;;;;;7.06;100.00;102177.84;4960979;28;20035;-65
2022/11/13 10:23:20;;;;;;;8.32;7.53;;;;;;;7.05;100.00;102179.53;4950649;28;20031;-65
2022/11/13 10:25:46;;;;;;;8.55;6.78;;;;;;;7.06;100.00;102175.28;4950593;28;20287;-65
2022/11/13 10:28:17;;;;;;;6.25;5.63;;;;;;;7.07;100.00;102171.88;4950882;28;20042;-65
2022/11/13 10:30:44;;;;;;;7.10;6.40;;;;;;;7.12;100.00;102175.72;4955824;28;20046;-66
2022/11/13 10:33:15;;;;;;;6.43;5.82;;;;;;;7.23;100.00;102173.84;4962924;28;20035;-65
2022/11/13 10:35:46;;;;;;;6.70;6.10;;;;;;;7.34;100.00;102166.81;4954597;28;20106;-66
2022/11/13 10:38:48;;;;;;;7.32;6.63;;;;;;;7.42;100.00;102157.00;4950436;28;20025;-65
2022/11/13 10:41:17;;;;;;;6.13;5.63;;;;;;;7.44;100.00;102169.22;4963345;28;20086;-65
2022/11/13 10:43:58;;;;;;;7.78;6.97;;;;;;;7.48;100.00;102157.44;4964042;28;20067;-65
2022/11/13 10:46:28;;;;;;;7.43;6.75;;;;;;;7.50;100.00;102155.81;4951835;28;20062;-65
2022/11/13 10:48:54;;;;;;;8.10;6.75;;;;;;;7.66;100.00;102149.09;4960531;28;20879;-65
2022/11/13 10:51:24;;;;;;;7.25;6.60;;;;;;;7.77;100.00;102142.06;4950436;28;20166;-66
2022/11/13 10:53:50;;;;;;;7.82;6.47;;;;;;;7.96;100.00;102135.47;4962147;28;20387;-66
2022/11/13 10:56:26;;;;;;;6.53;5.93;;;;;;;8.07;100.00;102142.22;4960844;28;20030;-65
2022/11/13 10:59:14;;;;;;;7.55;6.85;;;;;;;8.22;100.00;102133.66;4951216;28;20050;-66
2022/11/13 11:01:41;;;;;;;5.82;5.30;;;;;;;8.28;100.00;102123.69;4950465;28;20206;-65
2022/11/13 11:04:11;;;;;;;6.88;6.18;;;;;;;8.47;100.00;102119.69;4950727;28;20053;-66
2022/11/13 11:06:39;;;;;;;5.60;5.10;;;;;;;8.56;100.00;102122.88;4951071;28;20034;-65
2022/11/13 11:09:13;;;;;;;6.90;5.40;;;;;;;8.63;100.00;102108.63;4951981;28;20078;-66
2022/11/13 11:14:28;;;;;;;5.65;5.13;;;;;;;8.78;100.00;102108.63;4960846;28;20442;-66
2022/11/13 11:16:55;;;;;;;5.80;4.88;;;;;;;8.84;100.00;102106.44;4953725;28;20042;-66
2022/11/13 11:19:26;;;;;;;5.60;5.10;;;;;;;8.89;100.00;102102.41;4957338;28;20085;-66
2022/11/13 11:22:05;;;;;;;5.85;5.22;;;;;;;9.02;100.00;102103.13;4957854;28;20399;-65
2022/11/13 11:24:36;;;;;;;5.60;5.10;;;;;;;9.13;100.00;102099.50;4950570;28;20051;-66